sensor_id;sensor_type;location;lat;lon;timestamp;P1;durP1;ratioP1;P2;durP2;ratioP2
74935;SDS011;63501;55.570;37.488;2023-07-13T00:02:07;1.42;;;0.77;;
74935;SDS011;63501;55.570;37.488;2023-07-13T00:04:35;1.48;;;0.95;;
74935;SDS011;63501;55.570;37.488;2023-07-13T00:07:03;2.10;;;1.00;;
74935;SDS011;63501;55.570;37.488;2023-07-13T00:09:30;1.13;;;0.85;;
74935;SDS011;63501;55.570;37.488;2023-07-13T00:11:57;1.73;;;1.17;;
74935;SDS011;63501;55.570;37.488;2023-07-13T00:14:25;2.70;;;1.00;;
74935;SDS011;63501;55.570;37.488;2023-07-13T00:16:55;0.85;;;0.80;;
74935;SDS011;63501;55.570;37.488;2023-07-13T00:19:25;1.42;;;1.20;;
74935;SDS011;63501;55.570;37.488;2023-07-13T00:21:52;2.05;;;0.70;;
74935;SDS011;63501;55.570;37.488;2023-07-13T00:24:21;0.70;;;0.70;;
74935;SDS011;63501;55.570;37.488;2023-07-13T00:26:49;1.27;;;0.90;;
74935;SDS011;63501;55.570;37.488;2023-07-13T00:29:16;1.67;;;1.58;;
74935;SDS011;63501;55.570;37.488;2023-07-13T00:31:43;1.55;;;1.45;;
74935;SDS011;63501;55.570;37.488;2023-07-13T00:34:12;2.75;;;1.75;;
74935;SDS011;63501;55.570;37.488;2023-07-13T00:36:40;1.23;;;0.60;;
74935;SDS011;63501;55.570;37.488;2023-07-13T00:39:07;1.90;;;1.00;;
74935;SDS011;63501;55.570;37.488;2023-07-13T00:41:34;2.15;;;1.23;;
74935;SDS011;63501;55.570;37.488;2023-07-13T00:44:02;1.08;;;0.98;;
74935;SDS011;63501;55.570;37.488;2023-07-13T00:46:30;1.70;;;1.30;;
74935;SDS011;63501;55.570;37.488;2023-07-13T00:49:00;1.70;;;1.10;;
74935;SDS011;63501;55.570;37.488;2023-07-13T00:51:34;1.40;;;1.30;;
74935;SDS011;63501;55.570;37.488;2023-07-13T00:54:06;1.40;;;0.98;;
74935;SDS011;63501;55.570;37.488;2023-07-13T00:56:38;1.77;;;1.02;;
74935;SDS011;63501;55.570;37.488;2023-07-13T00:59:07;1.70;;;1.30;;
74935;SDS011;63501;55.570;37.488;2023-07-13T01:01:36;1.98;;;0.90;;
74935;SDS011;63501;55.570;37.488;2023-07-13T01:04:04;1.70;;;1.15;;
74935;SDS011;63501;55.570;37.488;2023-07-13T01:06:34;2.92;;;1.60;;
74935;SDS011;63501;55.570;37.488;2023-07-13T01:09:02;1.48;;;0.47;;
74935;SDS011;63501;55.570;37.488;2023-07-13T01:13:57;1.83;;;1.15;;
74935;SDS011;63501;55.570;37.488;2023-07-13T01:16:27;2.28;;;1.35;;
74935;SDS011;63501;55.570;37.488;2023-07-13T01:18:56;1.08;;;0.68;;
74935;SDS011;63501;55.570;37.488;2023-07-13T01:21:27;2.30;;;1.48;;
74935;SDS011;63501;55.570;37.488;2023-07-13T01:23:55;1.83;;;1.05;;
74935;SDS011;63501;55.570;37.488;2023-07-13T01:26:22;3.22;;;1.33;;
74935;SDS011;63501;55.570;37.488;2023-07-13T01:28:49;7.28;;;1.65;;
74935;SDS011;63501;55.570;37.488;2023-07-13T01:31:16;1.95;;;1.33;;
74935;SDS011;63501;55.570;37.488;2023-07-13T01:33:44;2.97;;;1.50;;
74935;SDS011;63501;55.570;37.488;2023-07-13T01:36:11;1.75;;;1.55;;
74935;SDS011;63501;55.570;37.488;2023-07-13T01:38:40;2.22;;;1.55;;
74935;SDS011;63501;55.570;37.488;2023-07-13T01:41:07;1.35;;;1.05;;
74935;SDS011;63501;55.570;37.488;2023-07-13T01:43:35;1.58;;;1.20;;
74935;SDS011;63501;55.570;37.488;2023-07-13T01:46:02;4.50;;;1.58;;
74935;SDS011;63501;55.570;37.488;2023-07-13T01:48:29;0.73;;;0.73;;
74935;SDS011;63501;55.570;37.488;2023-07-13T01:50:56;1.92;;;1.20;;
74935;SDS011;63501;55.570;37.488;2023-07-13T01:53:23;2.25;;;1.45;;
74935;SDS011;63501;55.570;37.488;2023-07-13T01:55:52;2.88;;;1.02;;
74935;SDS011;63501;55.570;37.488;2023-07-13T01:58:19;4.72;;;1.60;;
74935;SDS011;63501;55.570;37.488;2023-07-13T02:00:47;1.60;;;1.13;;
74935;SDS011;63501;55.570;37.488;2023-07-13T02:03:15;2.42;;;1.20;;
74935;SDS011;63501;55.570;37.488;2023-07-13T02:05:43;1.50;;;1.02;;
74935;SDS011;63501;55.570;37.488;2023-07-13T02:08:10;2.17;;;1.60;;
74935;SDS011;63501;55.570;37.488;2023-07-13T02:10:38;2.60;;;1.40;;
74935;SDS011;63501;55.570;37.488;2023-07-13T02:13:07;2.47;;;1.58;;
74935;SDS011;63501;55.570;37.488;2023-07-13T02:15:34;2.42;;;1.33;;
74935;SDS011;63501;55.570;37.488;2023-07-13T02:18:05;1.63;;;1.10;;
74935;SDS011;63501;55.570;37.488;2023-07-13T02:20:52;4.85;;;1.38;;
74935;SDS011;63501;55.570;37.488;2023-07-13T02:23:19;3.33;;;1.80;;
74935;SDS011;63501;55.570;37.488;2023-07-13T02:25:46;3.08;;;1.85;;
74935;SDS011;63501;55.570;37.488;2023-07-13T02:28:15;2.20;;;1.23;;
74935;SDS011;63501;55.570;37.488;2023-07-13T02:30:42;1.90;;;1.30;;
74935;SDS011;63501;55.570;37.488;2023-07-13T02:33:10;2.60;;;1.60;;
74935;SDS011;63501;55.570;37.488;2023-07-13T02:35:37;4.22;;;1.60;;
74935;SDS011;63501;55.570;37.488;2023-07-13T02:38:04;1.80;;;1.55;;
74935;SDS011;63501;55.570;37.488;2023-07-13T02:40:31;2.65;;;1.50;;
74935;SDS011;63501;55.570;37.488;2023-07-13T02:43:00;1.25;;;0.85;;
74935;SDS011;63501;55.570;37.488;2023-07-13T02:45:29;2.83;;;1.15;;
74935;SDS011;63501;55.570;37.488;2023-07-13T02:47:56;2.20;;;1.20;;
74935;SDS011;63501;55.570;37.488;2023-07-13T02:50:23;3.45;;;1.63;;
74935;SDS011;63501;55.570;37.488;2023-07-13T02:52:51;1.80;;;1.42;;
74935;SDS011;63501;55.570;37.488;2023-07-13T02:55:18;3.15;;;1.55;;
74935;SDS011;63501;55.570;37.488;2023-07-13T02:57:45;2.08;;;1.67;;
74935;SDS011;63501;55.570;37.488;2023-07-13T03:00:13;2.65;;;1.50;;
74935;SDS011;63501;55.570;37.488;2023-07-13T03:02:43;5.35;;;1.30;;
74935;SDS011;63501;55.570;37.488;2023-07-13T03:05:11;4.60;;;2.03;;
74935;SDS011;63501;55.570;37.488;2023-07-13T03:07:38;3.33;;;2.03;;
74935;SDS011;63501;55.570;37.488;2023-07-13T03:10:06;2.47;;;1.70;;
74935;SDS011;63501;55.570;37.488;2023-07-13T03:12:34;3.00;;;1.02;;
74935;SDS011;63501;55.570;37.488;2023-07-13T03:15:01;2.45;;;1.52;;
74935;SDS011;63501;55.570;37.488;2023-07-13T03:17:30;2.63;;;1.42;;
74935;SDS011;63501;55.570;37.488;2023-07-13T03:19:59;4.32;;;1.25;;
74935;SDS011;63501;55.570;37.488;2023-07-13T03:22:26;2.30;;;1.42;;
74935;SDS011;63501;55.570;37.488;2023-07-13T03:24:54;7.97;;;2.25;;
74935;SDS011;63501;55.570;37.488;2023-07-13T03:27:21;2.03;;;1.33;;
74935;SDS011;63501;55.570;37.488;2023-07-13T03:29:49;3.72;;;1.60;;
74935;SDS011;63501;55.570;37.488;2023-07-13T03:32:16;2.65;;;1.75;;
74935;SDS011;63501;55.570;37.488;2023-07-13T03:34:43;2.70;;;1.60;;
74935;SDS011;63501;55.570;37.488;2023-07-13T03:37:11;0.90;;;0.70;;
74935;SDS011;63501;55.570;37.488;2023-07-13T03:39:38;4.28;;;1.95;;
74935;SDS011;63501;55.570;37.488;2023-07-13T03:42:06;2.78;;;1.55;;
74935;SDS011;63501;55.570;37.488;2023-07-13T03:44:35;1.95;;;1.17;;
74935;SDS011;63501;55.570;37.488;2023-07-13T03:47:02;2.63;;;1.60;;
74935;SDS011;63501;55.570;37.488;2023-07-13T03:49:31;1.15;;;0.82;;
74935;SDS011;63501;55.570;37.488;2023-07-13T03:51:58;2.67;;;1.67;;
74935;SDS011;63501;55.570;37.488;2023-07-13T03:54:27;3.45;;;2.03;;
74935;SDS011;63501;55.570;37.488;2023-07-13T03:56:54;0.75;;;0.70;;
74935;SDS011;63501;55.570;37.488;2023-07-13T03:59:21;2.95;;;1.85;;
74935;SDS011;63501;55.570;37.488;2023-07-13T04:01:48;1.98;;;1.60;;
74935;SDS011;63501;55.570;37.488;2023-07-13T04:04:15;1.38;;;0.82;;
74935;SDS011;63501;55.570;37.488;2023-07-13T04:06:43;3.00;;;1.58;;
74935;SDS011;63501;55.570;37.488;2023-07-13T04:09:10;1.73;;;1.55;;
74935;SDS011;63501;55.570;37.488;2023-07-13T04:11:38;2.10;;;1.40;;
74935;SDS011;63501;55.570;37.488;2023-07-13T04:14:05;1.55;;;1.35;;
74935;SDS011;63501;55.570;37.488;2023-07-13T04:16:32;3.05;;;1.33;;
74935;SDS011;63501;55.570;37.488;2023-07-13T04:19:00;1.27;;;1.02;;
74935;SDS011;63501;55.570;37.488;2023-07-13T04:21:27;2.92;;;1.70;;
74935;SDS011;63501;55.570;37.488;2023-07-13T04:23:55;5.72;;;1.90;;
74935;SDS011;63501;55.570;37.488;2023-07-13T04:26:23;4.00;;;1.65;;
74935;SDS011;63501;55.570;37.488;2023-07-13T04:28:51;3.55;;;1.30;;
74935;SDS011;63501;55.570;37.488;2023-07-13T04:31:19;2.72;;;1.55;;
74935;SDS011;63501;55.570;37.488;2023-07-13T04:33:46;1.98;;;1.48;;
74935;SDS011;63501;55.570;37.488;2023-07-13T04:36:13;1.27;;;1.10;;
74935;SDS011;63501;55.570;37.488;2023-07-13T04:38:41;3.40;;;1.55;;
74935;SDS011;63501;55.570;37.488;2023-07-13T04:41:09;1.75;;;0.98;;
74935;SDS011;63501;55.570;37.488;2023-07-13T04:43:36;2.42;;;1.67;;
74935;SDS011;63501;55.570;37.488;2023-07-13T04:46:05;3.53;;;1.58;;
74935;SDS011;63501;55.570;37.488;2023-07-13T04:48:33;4.35;;;1.90;;
74935;SDS011;63501;55.570;37.488;2023-07-13T04:51:00;3.63;;;2.05;;
74935;SDS011;63501;55.570;37.488;2023-07-13T04:53:28;1.55;;;0.77;;
74935;SDS011;63501;55.570;37.488;2023-07-13T04:58:23;1.25;;;1.15;;
74935;SDS011;63501;55.570;37.488;2023-07-13T05:00:51;5.22;;;1.60;;
74935;SDS011;63501;55.570;37.488;2023-07-13T05:03:20;1.48;;;1.30;;
74935;SDS011;63501;55.570;37.488;2023-07-13T05:05:54;2.40;;;1.35;;
74935;SDS011;63501;55.570;37.488;2023-07-13T05:08:22;2.65;;;1.38;;
74935;SDS011;63501;55.570;37.488;2023-07-13T05:10:49;1.77;;;1.33;;
74935;SDS011;63501;55.570;37.488;2023-07-13T05:13:16;1.67;;;1.35;;
74935;SDS011;63501;55.570;37.488;2023-07-13T05:15:44;1.50;;;1.30;;
74935;SDS011;63501;55.570;37.488;2023-07-13T05:18:12;1.60;;;1.20;;
74935;SDS011;63501;55.570;37.488;2023-07-13T05:20:40;2.25;;;1.38;;
74935;SDS011;63501;55.570;37.488;2023-07-13T05:23:07;2.72;;;1.73;;
74935;SDS011;63501;55.570;37.488;2023-07-13T05:25:34;1.10;;;0.82;;
74935;SDS011;63501;55.570;37.488;2023-07-13T05:28:02;1.73;;;1.60;;
74935;SDS011;63501;55.570;37.488;2023-07-13T05:30:29;3.55;;;1.92;;
74935;SDS011;63501;55.570;37.488;2023-07-13T05:32:56;1.75;;;1.13;;
74935;SDS011;63501;55.570;37.488;2023-07-13T05:35:23;3.38;;;1.67;;
74935;SDS011;63501;55.570;37.488;2023-07-13T05:37:51;1.52;;;1.27;;
74935;SDS011;63501;55.570;37.488;2023-07-13T05:40:18;1.50;;;1.15;;
74935;SDS011;63501;55.570;37.488;2023-07-13T05:42:45;2.13;;;1.35;;
74935;SDS011;63501;55.570;37.488;2023-07-13T05:45:13;1.45;;;1.00;;
74935;SDS011;63501;55.570;37.488;2023-07-13T05:47:40;1.73;;;1.02;;
74935;SDS011;63501;55.570;37.488;2023-07-13T05:50:07;2.45;;;1.33;;
74935;SDS011;63501;55.570;37.488;2023-07-13T05:52:34;2.88;;;1.90;;
74935;SDS011;63501;55.570;37.488;2023-07-13T05:55:04;2.13;;;1.63;;
74935;SDS011;63501;55.570;37.488;2023-07-13T05:57:32;2.33;;;1.65;;
74935;SDS011;63501;55.570;37.488;2023-07-13T05:59:59;2.40;;;1.50;;
74935;SDS011;63501;55.570;37.488;2023-07-13T06:02:27;2.88;;;2.05;;
74935;SDS011;63501;55.570;37.488;2023-07-13T06:04:54;6.03;;;2.13;;
74935;SDS011;63501;55.570;37.488;2023-07-13T06:07:22;2.65;;;1.77;;
74935;SDS011;63501;55.570;37.488;2023-07-13T06:09:49;7.82;;;1.80;;
74935;SDS011;63501;55.570;37.488;2023-07-13T06:12:18;3.28;;;1.92;;
74935;SDS011;63501;55.570;37.488;2023-07-13T06:14:45;2.95;;;1.38;;
74935;SDS011;63501;55.570;37.488;2023-07-13T06:17:12;2.00;;;1.33;;
74935;SDS011;63501;55.570;37.488;2023-07-13T06:19:39;2.97;;;1.60;;
74935;SDS011;63501;55.570;37.488;2023-07-13T06:22:06;2.60;;;0.98;;
74935;SDS011;63501;55.570;37.488;2023-07-13T06:24:34;4.22;;;1.25;;
74935;SDS011;63501;55.570;37.488;2023-07-13T06:27:01;1.45;;;1.15;;
74935;SDS011;63501;55.570;37.488;2023-07-13T06:29:29;1.88;;;0.95;;
74935;SDS011;63501;55.570;37.488;2023-07-13T06:31:56;1.35;;;0.98;;
74935;SDS011;63501;55.570;37.488;2023-07-13T06:34:24;1.90;;;1.42;;
74935;SDS011;63501;55.570;37.488;2023-07-13T06:36:51;1.48;;;1.38;;
74935;SDS011;63501;55.570;37.488;2023-07-13T06:39:18;1.55;;;1.40;;
74935;SDS011;63501;55.570;37.488;2023-07-13T06:41:45;2.60;;;1.95;;
74935;SDS011;63501;55.570;37.488;2023-07-13T06:44:12;1.27;;;1.02;;
74935;SDS011;63501;55.570;37.488;2023-07-13T06:46:41;1.30;;;0.98;;
74935;SDS011;63501;55.570;37.488;2023-07-13T06:49:08;1.33;;;0.95;;
74935;SDS011;63501;55.570;37.488;2023-07-13T06:51:35;1.35;;;1.00;;
74935;SDS011;63501;55.570;37.488;2023-07-13T06:54:03;2.25;;;1.50;;
74935;SDS011;63501;55.570;37.488;2023-07-13T06:56:30;1.20;;;1.02;;
74935;SDS011;63501;55.570;37.488;2023-07-13T06:58:57;3.85;;;1.70;;
74935;SDS011;63501;55.570;37.488;2023-07-13T07:01:24;1.33;;;1.00;;
74935;SDS011;63501;55.570;37.488;2023-07-13T07:03:53;4.70;;;1.75;;
74935;SDS011;63501;55.570;37.488;2023-07-13T07:06:21;1.88;;;0.73;;
74935;SDS011;63501;55.570;37.488;2023-07-13T07:08:49;1.92;;;1.15;;
74935;SDS011;63501;55.570;37.488;2023-07-13T07:11:18;2.85;;;1.50;;
74935;SDS011;63501;55.570;37.488;2023-07-13T07:13:48;2.85;;;1.48;;
74935;SDS011;63501;55.570;37.488;2023-07-13T07:16:16;2.60;;;1.70;;
74935;SDS011;63501;55.570;37.488;2023-07-13T07:18:43;2.17;;;1.73;;
74935;SDS011;63501;55.570;37.488;2023-07-13T07:21:12;1.85;;;1.05;;
74935;SDS011;63501;55.570;37.488;2023-07-13T07:23:40;1.63;;;1.15;;
74935;SDS011;63501;55.570;37.488;2023-07-13T07:26:07;1.52;;;1.20;;
74935;SDS011;63501;55.570;37.488;2023-07-13T07:28:35;1.23;;;1.13;;
74935;SDS011;63501;55.570;37.488;2023-07-13T07:31:02;1.95;;;1.40;;
74935;SDS011;63501;55.570;37.488;2023-07-13T07:33:30;3.28;;;1.63;;
74935;SDS011;63501;55.570;37.488;2023-07-13T07:35:57;2.33;;;0.77;;
74935;SDS011;63501;55.570;37.488;2023-07-13T07:38:25;1.80;;;1.40;;
74935;SDS011;63501;55.570;37.488;2023-07-13T07:40:52;2.58;;;1.40;;
74935;SDS011;63501;55.570;37.488;2023-07-13T07:43:20;2.05;;;1.70;;
74935;SDS011;63501;55.570;37.488;2023-07-13T07:45:47;1.95;;;1.42;;
74935;SDS011;63501;55.570;37.488;2023-07-13T07:48:14;2.40;;;1.60;;
74935;SDS011;63501;55.570;37.488;2023-07-13T07:50:41;1.23;;;1.05;;
74935;SDS011;63501;55.570;37.488;2023-07-13T07:55:39;1.48;;;0.95;;
74935;SDS011;63501;55.570;37.488;2023-07-13T07:58:06;2.13;;;1.60;;
74935;SDS011;63501;55.570;37.488;2023-07-13T08:00:33;0.77;;;0.77;;
74935;SDS011;63501;55.570;37.488;2023-07-13T08:03:01;1.20;;;0.93;;
74935;SDS011;63501;55.570;37.488;2023-07-13T08:05:28;2.65;;;1.20;;
74935;SDS011;63501;55.570;37.488;2023-07-13T08:10:23;1.52;;;1.20;;
74935;SDS011;63501;55.570;37.488;2023-07-13T08:12:51;2.08;;;1.42;;
74935;SDS011;63501;55.570;37.488;2023-07-13T08:15:19;1.65;;;1.23;;
74935;SDS011;63501;55.570;37.488;2023-07-13T08:17:47;3.28;;;1.50;;
74935;SDS011;63501;55.570;37.488;2023-07-13T08:20:15;2.10;;;1.80;;
74935;SDS011;63501;55.570;37.488;2023-07-13T08:22:42;2.92;;;1.67;;
74935;SDS011;63501;55.570;37.488;2023-07-13T08:25:09;2.38;;;1.40;;
74935;SDS011;63501;55.570;37.488;2023-07-13T08:27:37;3.65;;;1.48;;
74935;SDS011;63501;55.570;37.488;2023-07-13T08:30:06;1.95;;;1.58;;
74935;SDS011;63501;55.570;37.488;2023-07-13T08:32:34;2.05;;;1.52;;
74935;SDS011;63501;55.570;37.488;2023-07-13T08:35:03;2.50;;;1.35;;
74935;SDS011;63501;55.570;37.488;2023-07-13T08:37:30;1.23;;;1.02;;
74935;SDS011;63501;55.570;37.488;2023-07-13T08:39:58;5.95;;;2.45;;
74935;SDS011;63501;55.570;37.488;2023-07-13T08:42:32;3.55;;;1.92;;
74935;SDS011;63501;55.570;37.488;2023-07-13T08:47:44;3.28;;;2.05;;
74935;SDS011;63501;55.570;37.488;2023-07-13T08:50:17;1.77;;;0.90;;
74935;SDS011;63501;55.570;37.488;2023-07-13T08:52:46;3.38;;;2.00;;
74935;SDS011;63501;55.570;37.488;2023-07-13T08:57:43;2.17;;;1.70;;
74935;SDS011;63501;55.570;37.488;2023-07-13T09:00:16;5.63;;;1.73;;
74935;SDS011;63501;55.570;37.488;2023-07-13T09:02:45;1.80;;;1.40;;
74935;SDS011;63501;55.570;37.488;2023-07-13T09:05:18;2.10;;;0.98;;
74935;SDS011;63501;55.570;37.488;2023-07-13T09:08:01;1.98;;;1.60;;
74935;SDS011;63501;55.570;37.488;2023-07-13T09:10:44;1.65;;;1.05;;
74935;SDS011;63501;55.570;37.488;2023-07-13T09:13:27;2.58;;;1.90;;
74935;SDS011;63501;55.570;37.488;2023-07-13T09:16:05;2.03;;;1.77;;
74935;SDS011;63501;55.570;37.488;2023-07-13T09:18:35;1.33;;;1.02;;
74935;SDS011;63501;55.570;37.488;2023-07-13T09:21:07;3.47;;;1.90;;
74935;SDS011;63501;55.570;37.488;2023-07-13T09:23:37;2.58;;;1.73;;
74935;SDS011;63501;55.570;37.488;2023-07-13T09:26:06;4.28;;;2.72;;
74935;SDS011;63501;55.570;37.488;2023-07-13T09:28:40;4.05;;;2.42;;
74935;SDS011;63501;55.570;37.488;2023-07-13T09:31:13;3.22;;;2.28;;
74935;SDS011;63501;55.570;37.488;2023-07-13T09:33:43;4.85;;;2.78;;
74935;SDS011;63501;55.570;37.488;2023-07-13T09:36:18;2.95;;;2.40;;
74935;SDS011;63501;55.570;37.488;2023-07-13T09:38:49;2.65;;;1.95;;
74935;SDS011;63501;55.570;37.488;2023-07-13T09:41:26;1.48;;;0.95;;
74935;SDS011;63501;55.570;37.488;2023-07-13T09:44:00;4.72;;;2.25;;
74935;SDS011;63501;55.570;37.488;2023-07-13T09:46:29;5.75;;;2.55;;
74935;SDS011;63501;55.570;37.488;2023-07-13T09:48:56;4.05;;;2.25;;
74935;SDS011;63501;55.570;37.488;2023-07-13T09:51:23;4.13;;;2.45;;
74935;SDS011;63501;55.570;37.488;2023-07-13T09:53:50;3.28;;;1.95;;
74935;SDS011;63501;55.570;37.488;2023-07-13T09:56:20;4.22;;;2.10;;
74935;SDS011;63501;55.570;37.488;2023-07-13T09:58:48;7.15;;;2.53;;
74935;SDS011;63501;55.570;37.488;2023-07-13T10:01:17;2.75;;;1.60;;
74935;SDS011;63501;55.570;37.488;2023-07-13T10:04:00;5.05;;;2.08;;
74935;SDS011;63501;55.570;37.488;2023-07-13T10:06:27;4.07;;;2.38;;
74935;SDS011;63501;55.570;37.488;2023-07-13T10:08:55;5.47;;;2.70;;
74935;SDS011;63501;55.570;37.488;2023-07-13T10:11:26;4.28;;;2.78;;
74935;SDS011;63501;55.570;37.488;2023-07-13T10:13:56;4.53;;;2.65;;
74935;SDS011;63501;55.570;37.488;2023-07-13T10:16:25;5.50;;;3.50;;
74935;SDS011;63501;55.570;37.488;2023-07-13T10:19:00;1.30;;;0.73;;
74935;SDS011;63501;55.570;37.488;2023-07-13T10:21:32;0.20;;;0.20;;
74935;SDS011;63501;55.570;37.488;2023-07-13T10:24:04;0.65;;;0.57;;
74935;SDS011;63501;55.570;37.488;2023-07-13T10:26:49;1.55;;;1.20;;
74935;SDS011;63501;55.570;37.488;2023-07-13T10:29:22;1.58;;;1.27;;
74935;SDS011;63501;55.570;37.488;2023-07-13T10:31:52;0.88;;;0.68;;
74935;SDS011;63501;55.570;37.488;2023-07-13T10:34:22;1.58;;;0.93;;
74935;SDS011;63501;55.570;37.488;2023-07-13T10:36:51;1.20;;;0.90;;
74935;SDS011;63501;55.570;37.488;2023-07-13T10:39:20;0.70;;;0.22;;
74935;SDS011;63501;55.570;37.488;2023-07-13T10:41:51;2.58;;;0.43;;
74935;SDS011;63501;55.570;37.488;2023-07-13T10:44:22;1.65;;;1.55;;
74935;SDS011;63501;55.570;37.488;2023-07-13T10:46:55;0.17;;;0.17;;
74935;SDS011;63501;55.570;37.488;2023-07-13T10:49:27;0.82;;;0.55;;
74935;SDS011;63501;55.570;37.488;2023-07-13T10:51:57;1.15;;;0.70;;
74935;SDS011;63501;55.570;37.488;2023-07-13T10:54:26;2.03;;;1.00;;
74935;SDS011;63501;55.570;37.488;2023-07-13T10:57:07;2.67;;;2.22;;
74935;SDS011;63501;55.570;37.488;2023-07-13T10:59:42;1.92;;;1.38;;
74935;SDS011;63501;55.570;37.488;2023-07-13T11:02:13;2.58;;;1.33;;
74935;SDS011;63501;55.570;37.488;2023-07-13T11:04:50;3.95;;;2.00;;
74935;SDS011;63501;55.570;37.488;2023-07-13T11:07:20;2.42;;;0.93;;
74935;SDS011;63501;55.570;37.488;2023-07-13T11:09:49;4.82;;;2.13;;
74935;SDS011;63501;55.570;37.488;2023-07-13T11:12:28;3.95;;;2.30;;
74935;SDS011;63501;55.570;37.488;2023-07-13T11:15:11;4.15;;;2.53;;
74935;SDS011;63501;55.570;37.488;2023-07-13T11:17:47;1.88;;;1.52;;
74935;SDS011;63501;55.570;37.488;2023-07-13T11:25:38;2.10;;;1.73;;
74935;SDS011;63501;55.570;37.488;2023-07-13T11:28:12;3.22;;;2.05;;
74935;SDS011;63501;55.570;37.488;2023-07-13T11:30:46;2.15;;;1.40;;
74935;SDS011;63501;55.570;37.488;2023-07-13T11:33:17;2.50;;;0.80;;
74935;SDS011;63501;55.570;37.488;2023-07-13T11:35:51;2.05;;;1.27;;
74935;SDS011;63501;55.570;37.488;2023-07-13T11:38:27;1.83;;;1.38;;
74935;SDS011;63501;55.570;37.488;2023-07-13T11:41:00;2.05;;;1.45;;
74935;SDS011;63501;55.570;37.488;2023-07-13T11:43:30;4.55;;;1.63;;
74935;SDS011;63501;55.570;37.488;2023-07-13T11:46:11;5.60;;;1.83;;
74935;SDS011;63501;55.570;37.488;2023-07-13T11:48:39;1.15;;;0.68;;
74935;SDS011;63501;55.570;37.488;2023-07-13T11:51:10;0.88;;;0.77;;
74935;SDS011;63501;55.570;37.488;2023-07-13T11:53:46;3.95;;;0.95;;
74935;SDS011;63501;55.570;37.488;2023-07-13T11:56:15;0.50;;;0.47;;
74935;SDS011;63501;55.570;37.488;2023-07-13T11:58:43;1.50;;;1.17;;
74935;SDS011;63501;55.570;37.488;2023-07-13T12:01:15;1.73;;;1.40;;
74935;SDS011;63501;55.570;37.488;2023-07-13T12:03:47;1.00;;;0.88;;
74935;SDS011;63501;55.570;37.488;2023-07-13T12:06:24;1.48;;;1.27;;
74935;SDS011;63501;55.570;37.488;2023-07-13T12:08:57;1.90;;;1.52;;
74935;SDS011;63501;55.570;37.488;2023-07-13T12:11:26;1.45;;;1.02;;
74935;SDS011;63501;55.570;37.488;2023-07-13T12:13:53;2.25;;;0.60;;
74935;SDS011;63501;55.570;37.488;2023-07-13T12:16:23;0.85;;;0.75;;
74935;SDS011;63501;55.570;37.488;2023-07-13T12:18:54;2.28;;;1.10;;
74935;SDS011;63501;55.570;37.488;2023-07-13T12:21:26;2.33;;;0.70;;
74935;SDS011;63501;55.570;37.488;2023-07-13T12:23:57;1.42;;;1.20;;
74935;SDS011;63501;55.570;37.488;2023-07-13T12:26:27;0.40;;;0.40;;
74935;SDS011;63501;55.570;37.488;2023-07-13T12:28:56;0.85;;;0.85;;
74935;SDS011;63501;55.570;37.488;2023-07-13T12:31:31;1.77;;;1.67;;
74935;SDS011;63501;55.570;37.488;2023-07-13T12:34:01;2.33;;;1.33;;
74935;SDS011;63501;55.570;37.488;2023-07-13T12:36:32;1.45;;;0.98;;
74935;SDS011;63501;55.570;37.488;2023-07-13T12:39:03;1.95;;;1.25;;
74935;SDS011;63501;55.570;37.488;2023-07-13T12:41:38;2.80;;;1.70;;
74935;SDS011;63501;55.570;37.488;2023-07-13T12:44:09;1.10;;;0.77;;
74935;SDS011;63501;55.570;37.488;2023-07-13T12:46:38;2.63;;;1.35;;
74935;SDS011;63501;55.570;37.488;2023-07-13T12:49:06;0.52;;;0.43;;
74935;SDS011;63501;55.570;37.488;2023-07-13T12:51:35;1.02;;;0.20;;
74935;SDS011;63501;55.570;37.488;2023-07-13T12:54:12;0.10;;;0.10;;
74935;SDS011;63501;55.570;37.488;2023-07-13T12:56:41;0.10;;;0.10;;
74935;SDS011;63501;55.570;37.488;2023-07-13T12:59:13;0.10;;;0.10;;
74935;SDS011;63501;55.570;37.488;2023-07-13T13:01:45;0.00;;;0.00;;
74935;SDS011;63501;55.570;37.488;2023-07-13T13:04:14;0.00;;;0.00;;
74935;SDS011;63501;55.570;37.488;2023-07-13T13:06:48;0.00;;;0.00;;
74935;SDS011;63501;55.570;37.488;2023-07-13T13:09:17;0.00;;;0.00;;
74935;SDS011;63501;55.570;37.488;2023-07-13T13:11:45;0.00;;;0.00;;
74935;SDS011;63501;55.570;37.488;2023-07-13T13:14:13;0.00;;;0.00;;
74935;SDS011;63501;55.570;37.488;2023-07-13T13:16:44;0.10;;;0.10;;
74935;SDS011;63501;55.570;37.488;2023-07-13T13:19:16;0.08;;;0.08;;
74935;SDS011;63501;55.570;37.488;2023-07-13T13:21:44;0.00;;;0.00;;
74935;SDS011;63501;55.570;37.488;2023-07-13T13:24:15;0.10;;;0.10;;
74935;SDS011;63501;55.570;37.488;2023-07-13T13:26:43;0.10;;;0.10;;
74935;SDS011;63501;55.570;37.488;2023-07-13T13:29:12;0.00;;;0.00;;
74935;SDS011;63501;55.570;37.488;2023-07-13T13:31:40;0.10;;;0.10;;
74935;SDS011;63501;55.570;37.488;2023-07-13T13:34:08;0.00;;;0.00;;
74935;SDS011;63501;55.570;37.488;2023-07-13T13:36:36;0.10;;;0.10;;
74935;SDS011;63501;55.570;37.488;2023-07-13T13:39:10;0.10;;;0.10;;
74935;SDS011;63501;55.570;37.488;2023-07-13T13:41:46;0.00;;;0.00;;
74935;SDS011;63501;55.570;37.488;2023-07-13T13:44:14;0.00;;;0.00;;
74935;SDS011;63501;55.570;37.488;2023-07-13T13:46:42;0.00;;;0.00;;
74935;SDS011;63501;55.570;37.488;2023-07-13T13:49:12;0.03;;;0.03;;
74935;SDS011;63501;55.570;37.488;2023-07-13T13:51:42;0.00;;;0.00;;
74935;SDS011;63501;55.570;37.488;2023-07-13T13:54:10;0.00;;;0.00;;
74935;SDS011;63501;55.570;37.488;2023-07-13T13:56:42;0.00;;;0.00;;
74935;SDS011;63501;55.570;37.488;2023-07-13T13:59:09;0.00;;;0.00;;
74935;SDS011;63501;55.570;37.488;2023-07-13T14:01:37;0.00;;;0.00;;
74935;SDS011;63501;55.570;37.488;2023-07-13T14:04:05;0.00;;;0.00;;
74935;SDS011;63501;55.570;37.488;2023-07-13T14:06:35;0.00;;;0.00;;
74935;SDS011;63501;55.570;37.488;2023-07-13T14:09:02;0.00;;;0.00;;
74935;SDS011;63501;55.570;37.488;2023-07-13T14:11:32;0.00;;;0.00;;
74935;SDS011;63501;55.570;37.488;2023-07-13T14:14:00;0.00;;;0.00;;
74935;SDS011;63501;55.570;37.488;2023-07-13T14:16:30;0.00;;;0.00;;
74935;SDS011;63501;55.570;37.488;2023-07-13T14:18:59;0.00;;;0.00;;
74935;SDS011;63501;55.570;37.488;2023-07-13T14:21:27;0.00;;;0.00;;
74935;SDS011;63501;55.570;37.488;2023-07-13T14:23:56;0.00;;;0.00;;
74935;SDS011;63501;55.570;37.488;2023-07-13T14:26:25;0.00;;;0.00;;
74935;SDS011;63501;55.570;37.488;2023-07-13T14:28:53;0.00;;;0.00;;
74935;SDS011;63501;55.570;37.488;2023-07-13T14:31:24;0.00;;;0.00;;
74935;SDS011;63501;55.570;37.488;2023-07-13T14:33:54;0.00;;;0.00;;
74935;SDS011;63501;55.570;37.488;2023-07-13T14:36:23;0.00;;;0.00;;
74935;SDS011;63501;55.570;37.488;2023-07-13T14:38:54;0.00;;;0.00;;
74935;SDS011;63501;55.570;37.488;2023-07-13T14:43:49;0.00;;;0.00;;
74935;SDS011;63501;55.570;37.488;2023-07-13T14:46:18;0.00;;;0.00;;
74935;SDS011;63501;55.570;37.488;2023-07-13T14:48:55;0.00;;;0.00;;
74935;SDS011;63501;55.570;37.488;2023-07-13T14:51:29;0.00;;;0.00;;
74935;SDS011;63501;55.570;37.488;2023-07-13T14:53:58;0.00;;;0.00;;
74935;SDS011;63501;55.570;37.488;2023-07-13T14:56:27;0.00;;;0.00;;
74935;SDS011;63501;55.570;37.488;2023-07-13T14:58:54;0.00;;;0.00;;
74935;SDS011;63501;55.570;37.488;2023-07-13T15:01:21;0.00;;;0.00;;
74935;SDS011;63501;55.570;37.488;2023-07-13T15:03:49;0.00;;;0.00;;
74935;SDS011;63501;55.570;37.488;2023-07-13T15:06:20;0.00;;;0.00;;
74935;SDS011;63501;55.570;37.488;2023-07-13T15:08:47;0.00;;;0.00;;